createdAt,value
2019-02-07T00:00:12.923Z,5.80
2019-02-07T00:01:12.916Z,6.60
2019-02-07T00:02:12.943Z,6.40
2019-02-07T00:03:12.878Z,6.20
2019-02-07T00:04:12.880Z,6.00
2019-02-07T00:05:12.874Z,6.10
2019-02-07T00:06:12.859Z,6.60
2019-02-07T00:07:12.905Z,5.80
2019-02-07T00:08:12.879Z,6.20
2019-02-07T00:09:12.819Z,6.40
2019-02-07T00:10:12.810Z,6.00
2019-02-07T00:11:12.798Z,6.00
2019-02-07T00:12:12.790Z,6.60
2019-02-07T00:13:12.787Z,6.20
2019-02-07T00:14:12.790Z,6.40
2019-02-07T00:15:12.756Z,6.00
2019-02-07T00:16:12.751Z,6.10
2019-02-07T00:17:12.746Z,6.10
2019-02-07T00:18:12.774Z,6.00
2019-02-07T00:19:12.742Z,5.60
2019-02-07T00:20:12.747Z,6.80
2019-02-07T00:21:12.687Z,6.30
2019-02-07T00:22:12.680Z,6.10
2019-02-07T00:23:12.659Z,6.20
2019-02-07T00:24:12.671Z,6.30
2019-02-07T00:25:12.680Z,5.60
2019-02-07T00:26:12.654Z,5.70
2019-02-07T00:27:12.641Z,5.50
2019-02-07T00:28:12.609Z,6.10
2019-02-07T00:29:12.594Z,5.90
2019-02-07T00:30:12.665Z,5.90
2019-02-07T00:31:12.584Z,5.90
2019-02-07T00:32:12.575Z,5.70
2019-02-07T00:33:12.559Z,6.20
2019-02-07T00:34:12.545Z,6.00
2019-02-07T00:35:12.541Z,6.10
2019-02-07T00:36:12.548Z,5.50
2019-02-07T00:37:12.519Z,6.10
2019-02-07T00:38:12.514Z,6.50
2019-02-07T00:39:12.504Z,6.70
2019-02-07T00:40:12.484Z,6.60
2019-02-07T00:41:12.503Z,6.40
2019-02-07T00:42:12.454Z,5.50
2019-02-07T00:43:12.455Z,5.90
2019-02-07T00:44:12.439Z,5.90
2019-02-07T00:45:12.438Z,6.30
2019-02-07T00:46:12.406Z,6.20
2019-02-07T00:47:12.409Z,5.30
2019-02-07T00:48:12.391Z,6.20
2019-02-07T00:49:12.399Z,5.40
2019-02-07T00:50:12.376Z,5.80
2019-02-07T00:51:12.393Z,5.40
2019-02-07T00:52:12.349Z,5.30
2019-02-07T00:53:12.344Z,5.90
2019-02-07T00:54:12.351Z,5.60
2019-02-07T00:55:12.314Z,6.00
2019-02-07T00:56:12.312Z,4.80
2019-02-07T00:57:12.326Z,5.30
2019-02-07T00:58:12.284Z,5.60
2019-02-07T00:59:12.288Z,6.00
2019-02-07T01:00:12.266Z,6.10
2019-02-07T01:01:12.246Z,5.50
2019-02-07T01:02:12.271Z,5.80
2019-02-07T01:03:12.236Z,5.60
2019-02-07T01:04:12.217Z,5.30
2019-02-07T01:05:12.195Z,5.80
2019-02-07T01:06:12.199Z,5.90
2019-02-07T01:07:12.200Z,5.70
2019-02-07T01:08:12.199Z,5.30
2019-02-07T01:09:12.169Z,5.00
2019-02-07T01:10:12.156Z,5.30
2019-02-07T01:11:12.146Z,5.50
2019-02-07T01:12:12.123Z,5.80
2019-02-07T01:13:12.138Z,5.40
2019-02-07T01:14:12.109Z,5.60
2019-02-07T01:15:12.094Z,5.30
2019-02-07T01:16:12.109Z,5.20
2019-02-07T01:17:12.111Z,5.90
2019-02-07T01:18:12.081Z,5.40
2019-02-07T01:19:12.056Z,5.80
2019-02-07T01:20:12.058Z,5.80
2019-02-07T01:21:12.055Z,5.40
2019-02-07T01:22:12.045Z,5.10
2019-02-07T01:23:12.016Z,6.00
2019-02-07T01:24:12.006Z,5.10
2019-02-07T01:25:11.995Z,5.60
2019-02-07T01:26:11.981Z,5.50
2019-02-07T01:27:12.008Z,5.60
2019-02-07T01:28:11.972Z,6.00
2019-02-07T01:29:11.961Z,6.10
2019-02-07T01:30:11.947Z,5.30
2019-02-07T01:31:11.938Z,5.70
2019-02-07T01:32:11.930Z,5.50
2019-02-07T01:33:11.910Z,5.60
2019-02-07T01:34:11.908Z,5.50
2019-02-07T01:35:11.893Z,5.80
2019-02-07T01:36:11.874Z,5.40
2019-02-07T01:37:11.892Z,5.90
2019-02-07T01:38:11.854Z,5.10
2019-02-07T01:39:11.842Z,6.10
2019-02-07T01:40:11.835Z,5.70
2019-02-07T01:41:11.830Z,5.70
2019-02-07T01:42:11.838Z,6.10
2019-02-07T01:43:11.819Z,5.50
2019-02-07T01:44:11.793Z,5.80
2019-02-07T01:45:13.374Z,5.80
2019-02-07T01:46:11.769Z,5.30
2019-02-07T01:47:11.787Z,5.80
2019-02-07T01:48:11.768Z,6.10
2019-02-07T01:49:11.744Z,5.60
2019-02-07T01:50:11.724Z,6.00
2019-02-07T01:51:11.720Z,6.30
2019-02-07T01:52:11.712Z,5.40
2019-02-07T01:53:11.719Z,6.10
2019-02-07T01:54:11.706Z,5.90
2019-02-07T01:55:11.685Z,6.00
2019-02-07T01:56:11.663Z,6.00
2019-02-07T01:57:11.650Z,5.30
2019-02-07T01:58:11.673Z,6.00
2019-02-07T01:59:11.633Z,5.30
2019-02-07T02:00:11.624Z,5.60
2019-02-07T02:01:11.616Z,5.80
2019-02-07T02:02:11.597Z,6.50
2019-02-07T02:03:11.594Z,6.10
2019-02-07T02:04:11.596Z,6.30
2019-02-07T02:05:11.561Z,6.10
2019-02-07T02:06:11.590Z,6.40
2019-02-07T02:07:11.561Z,6.10
2019-02-07T02:08:11.527Z,5.60
2019-02-07T02:09:11.517Z,5.70
2019-02-07T02:10:11.506Z,5.90
2019-02-07T02:11:11.532Z,5.80
2019-02-07T02:12:11.504Z,5.80
2019-02-07T02:13:11.481Z,6.00
2019-02-07T02:14:11.497Z,5.70
2019-02-07T02:15:11.485Z,5.60
2019-02-07T02:16:11.450Z,6.30
2019-02-07T02:17:11.506Z,5.60
2019-02-07T02:18:11.431Z,5.40
2019-02-07T02:19:11.420Z,6.30
2019-02-07T02:20:11.449Z,5.70
2019-02-07T02:21:11.414Z,5.70
2019-02-07T02:22:11.377Z,5.80
2019-02-07T02:23:11.380Z,5.60
2019-02-07T02:24:11.370Z,5.40
2019-02-07T02:25:11.362Z,6.10
2019-02-07T02:26:11.372Z,6.00
2019-02-07T02:27:11.341Z,6.30
2019-02-07T02:28:11.310Z,5.40
2019-02-07T02:29:11.308Z,5.40
2019-02-07T02:30:11.297Z,5.60
2019-02-07T02:31:11.302Z,6.10
2019-02-07T02:32:11.290Z,6.40
2019-02-07T02:33:11.276Z,6.00
2019-02-07T02:34:11.261Z,5.70
2019-02-07T02:35:11.248Z,5.90
2019-02-07T02:36:11.267Z,5.40
2019-02-07T02:37:11.217Z,6.20
2019-02-07T02:38:11.214Z,6.20
2019-02-07T02:39:11.222Z,6.40
2019-02-07T02:40:11.181Z,5.70
2019-02-07T02:41:11.177Z,5.50
2019-02-07T02:42:11.184Z,5.60
2019-02-07T02:43:11.162Z,5.70
2019-02-07T02:44:11.148Z,5.60
2019-02-07T02:45:11.159Z,5.60
2019-02-07T02:46:11.128Z,5.40
2019-02-07T02:47:11.150Z,5.50
2019-02-07T02:48:11.103Z,6.10
2019-02-07T02:49:11.093Z,5.90
2019-02-07T02:50:11.077Z,6.40
2019-02-07T02:51:11.063Z,5.70
2019-02-07T02:52:11.068Z,5.60
2019-02-07T02:53:11.074Z,5.30
2019-02-07T02:54:11.033Z,5.00
2019-02-07T02:55:11.045Z,5.80
2019-02-07T02:56:11.022Z,5.80
2019-02-07T02:57:11.033Z,5.90
2019-02-07T02:58:11.001Z,5.90
2019-02-07T02:59:10.988Z,6.50
2019-02-07T03:00:10.996Z,5.60
2019-02-07T03:01:10.962Z,6.00
2019-02-07T03:02:10.971Z,6.30
2019-02-07T03:03:10.939Z,6.30
2019-02-07T03:04:10.942Z,5.50
2019-02-07T03:05:10.948Z,6.10
2019-02-07T03:06:10.932Z,6.80
2019-02-07T03:07:10.908Z,5.70
2019-02-07T03:08:10.899Z,5.90
2019-02-07T03:09:10.917Z,5.70
2019-02-07T03:10:10.882Z,5.80
2019-02-07T03:11:10.862Z,6.50
2019-02-07T03:12:10.874Z,5.00
2019-02-07T03:13:10.843Z,5.80
2019-02-07T03:14:10.852Z,6.80
2019-02-07T03:15:10.808Z,6.50
2019-02-07T03:16:10.808Z,6.60
2019-02-07T03:17:10.802Z,6.00
2019-02-07T03:18:10.806Z,6.40
2019-02-07T03:19:10.780Z,6.30
2019-02-07T03:20:10.785Z,5.90
2019-02-07T03:21:10.748Z,6.20
2019-02-07T03:22:10.774Z,6.00
2019-02-07T03:23:10.742Z,6.80
2019-02-07T03:24:10.731Z,6.30
2019-02-07T03:25:10.728Z,6.40
2019-02-07T03:26:10.691Z,7.20
2019-02-07T03:27:10.727Z,6.60
2019-02-07T03:28:10.679Z,6.70
2019-02-07T03:29:10.682Z,6.50
2019-02-07T03:30:10.658Z,5.90
2019-02-07T03:31:10.663Z,6.10
2019-02-07T03:32:10.630Z,6.10
2019-02-07T03:33:11.139Z,6.50
2019-02-07T03:34:10.609Z,6.60
2019-02-07T03:35:10.606Z,5.50
2019-02-07T03:36:10.595Z,5.90
2019-02-07T03:37:10.595Z,5.00
2019-02-07T03:38:10.607Z,5.90
2019-02-07T03:39:10.568Z,5.90
2019-02-07T03:40:10.550Z,5.50
2019-02-07T03:41:10.552Z,5.90
2019-02-07T03:42:10.532Z,5.60
2019-02-07T03:43:10.545Z,5.40
2019-02-07T03:44:10.509Z,5.30
2019-02-07T03:45:10.489Z,5.80
2019-02-07T03:46:10.525Z,5.50
2019-02-07T03:47:10.463Z,6.00
2019-02-07T03:48:10.476Z,5.10
2019-02-07T03:49:10.490Z,5.50
2019-02-07T03:50:10.610Z,5.20
2019-02-07T03:51:10.419Z,5.70
2019-02-07T03:52:10.418Z,5.90
2019-02-07T03:53:10.434Z,5.60
2019-02-07T03:54:10.407Z,5.60
2019-02-07T03:55:10.385Z,5.50
2019-02-07T03:56:10.567Z,4.80
2019-02-07T03:57:10.378Z,5.60
2019-02-07T03:58:10.408Z,5.50
2019-02-07T03:59:10.343Z,5.70
2019-02-07T04:00:10.324Z,5.60
2019-02-07T04:01:10.315Z,6.00
2019-02-07T04:02:10.326Z,5.20
2019-02-07T04:03:10.293Z,5.60
2019-02-07T04:04:10.295Z,5.00
2019-02-07T04:05:10.283Z,5.40
2019-02-07T04:06:10.290Z,5.60
2019-02-07T04:07:10.287Z,5.80
2019-02-07T04:08:10.242Z,6.20
2019-02-07T04:09:10.233Z,5.90
2019-02-07T04:10:10.235Z,5.80
2019-02-07T04:11:10.213Z,5.40
2019-02-07T04:12:10.250Z,5.70
2019-02-07T04:13:10.246Z,6.50
2019-02-07T04:14:10.241Z,5.90
2019-02-07T04:15:10.178Z,6.40
2019-02-07T04:16:15.080Z,6.00
2019-02-07T04:17:11.188Z,6.40
2019-02-07T04:18:10.174Z,6.90
2019-02-07T04:19:10.188Z,6.30
2019-02-07T04:20:10.111Z,6.00
2019-02-07T04:21:10.108Z,5.40
2019-02-07T04:22:10.129Z,5.50
2019-02-07T04:23:10.126Z,5.50
2019-02-07T04:24:10.159Z,6.00
2019-02-07T04:25:10.084Z,6.20
2019-02-07T04:26:10.157Z,5.80
2019-02-07T04:27:10.119Z,5.90
2019-02-07T04:28:10.149Z,5.10
2019-02-07T04:29:10.083Z,5.60
2019-02-07T04:30:10.051Z,5.40
2019-02-07T04:31:10.067Z,5.20
2019-02-07T04:32:09.983Z,5.70
2019-02-07T04:33:09.989Z,5.40
2019-02-07T04:34:09.961Z,5.80
2019-02-07T04:35:09.993Z,6.10
2019-02-07T04:36:09.999Z,6.10
2019-02-07T04:37:10.218Z,6.20
2019-02-07T04:38:09.988Z,6.60
2019-02-07T04:39:09.927Z,6.60
2019-02-07T04:40:12.382Z,6.10
2019-02-07T04:41:09.909Z,7.10
2019-02-07T04:42:10.030Z,6.40
2019-02-07T04:43:09.939Z,6.60
2019-02-07T04:44:09.873Z,6.50
2019-02-07T04:45:09.869Z,6.00
2019-02-07T04:46:09.839Z,6.40
2019-02-07T04:47:09.854Z,6.90
2019-02-07T04:48:09.822Z,6.50
2019-02-07T04:49:10.139Z,6.40
2019-02-07T04:50:09.799Z,6.50
2019-02-07T04:51:09.810Z,5.20
2019-02-07T04:52:09.768Z,5.70
2019-02-07T04:53:09.815Z,6.00
2019-02-07T04:54:09.748Z,6.60
2019-02-07T04:55:09.743Z,6.20
2019-02-07T04:56:09.739Z,5.80
2019-02-07T04:57:09.806Z,6.00
2019-02-07T04:58:09.755Z,6.20
2019-02-07T04:59:09.784Z,6.10
2019-02-07T05:00:10.106Z,6.00
2019-02-07T05:01:09.671Z,5.60
2019-02-07T05:02:09.688Z,5.90
2019-02-07T05:03:09.736Z,4.90
2019-02-07T05:04:09.654Z,5.50
2019-02-07T05:05:09.633Z,6.10
2019-02-07T05:06:09.619Z,5.10
2019-02-07T05:07:09.622Z,5.40
2019-02-07T05:08:09.610Z,5.70
2019-02-07T05:09:09.617Z,6.10
2019-02-07T05:10:09.593Z,6.40
2019-02-07T05:11:09.589Z,5.50
2019-02-07T05:12:09.551Z,7.10
2019-02-07T05:13:09.542Z,6.30
2019-02-07T05:14:09.554Z,6.90
2019-02-07T05:15:09.528Z,8.00
2019-02-07T05:16:09.525Z,7.40
2019-02-07T05:17:09.603Z,8.30
2019-02-07T05:18:09.496Z,7.80
2019-02-07T05:19:09.516Z,7.80
2019-02-07T05:20:09.487Z,7.60
2019-02-07T05:21:09.690Z,8.10
2019-02-07T05:22:09.462Z,7.60
2019-02-07T05:23:09.445Z,7.10
2019-02-07T05:24:09.427Z,8.20
2019-02-07T05:25:09.448Z,7.40
2019-02-07T05:26:09.409Z,8.20
2019-02-07T05:27:09.397Z,6.90
2019-02-07T05:28:09.401Z,7.50
2019-02-07T05:29:09.388Z,7.00
2019-02-07T05:30:09.376Z,7.40
2019-02-07T05:31:09.394Z,6.80
2019-02-07T05:32:09.342Z,7.60
2019-02-07T05:33:09.351Z,7.70
2019-02-07T05:34:09.323Z,7.20
2019-02-07T05:35:09.317Z,6.80
2019-02-07T05:36:09.314Z,6.90
2019-02-07T05:37:09.293Z,7.20
2019-02-07T05:38:09.279Z,8.10
2019-02-07T05:39:09.271Z,8.20
2019-02-07T05:40:09.273Z,7.50
2019-02-07T05:41:09.290Z,7.10
2019-02-07T05:42:09.238Z,6.60
2019-02-07T05:43:09.228Z,6.10
2019-02-07T05:44:09.214Z,6.40
2019-02-07T05:45:09.203Z,5.90
2019-02-07T05:46:09.219Z,6.00
2019-02-07T05:47:09.181Z,6.50
2019-02-07T05:48:09.178Z,6.60
2019-02-07T05:49:09.174Z,6.60
2019-02-07T05:50:09.144Z,6.30
2019-02-07T05:51:09.150Z,6.30
2019-02-07T05:52:09.159Z,6.70
2019-02-07T05:53:09.157Z,6.30
2019-02-07T05:54:09.113Z,5.90
2019-02-07T05:55:09.108Z,6.20
2019-02-07T05:56:09.084Z,6.20
2019-02-07T05:57:09.120Z,6.80
2019-02-07T05:58:09.174Z,6.60
2019-02-07T05:59:09.071Z,6.70
2019-02-07T06:00:09.045Z,5.70
2019-02-07T06:01:09.105Z,6.20
2019-02-07T06:02:09.039Z,6.00
2019-02-07T06:03:09.033Z,6.60
2019-02-07T06:04:08.995Z,7.10
2019-02-07T06:05:08.997Z,6.60
2019-02-07T06:06:08.982Z,6.40
2019-02-07T06:07:08.978Z,6.30
2019-02-07T06:08:08.990Z,6.60
2019-02-07T06:09:08.940Z,6.40
2019-02-07T06:10:08.931Z,6.00
2019-02-07T06:11:08.921Z,5.80
2019-02-07T06:12:08.912Z,6.30
2019-02-07T06:13:08.904Z,6.70
2019-02-07T06:14:08.923Z,5.50
2019-02-07T06:15:08.907Z,5.40
2019-02-07T06:16:08.862Z,6.90
2019-02-07T06:17:08.928Z,6.70
2019-02-07T06:18:08.846Z,6.50
2019-02-07T06:19:08.833Z,6.90
2019-02-07T06:20:08.878Z,5.70
2019-02-07T06:21:08.835Z,5.30
2019-02-07T06:22:08.799Z,5.90
2019-02-07T06:23:08.793Z,5.90
2019-02-07T06:24:08.833Z,5.70
2019-02-07T06:25:08.809Z,5.90
2019-02-07T06:26:08.821Z,6.10
2019-02-07T06:27:08.759Z,5.90
2019-02-07T06:28:08.742Z,6.30
2019-02-07T06:29:08.746Z,5.90
2019-02-07T06:30:08.716Z,6.30
2019-02-07T06:31:08.723Z,6.00
2019-02-07T06:32:08.706Z,5.20
2019-02-07T06:33:08.713Z,5.70
2019-02-07T06:34:08.689Z,6.00
2019-02-07T06:35:08.673Z,6.20
2019-02-07T06:36:08.674Z,6.40
2019-02-07T06:37:08.640Z,5.70
2019-02-07T06:38:08.662Z,5.70
2019-02-07T06:39:08.630Z,6.10
2019-02-07T06:40:08.653Z,6.00
2019-02-07T06:41:08.609Z,5.90
2019-02-07T06:42:08.598Z,5.40
2019-02-07T06:43:08.578Z,6.00
2019-02-07T06:44:08.582Z,6.40
2019-02-07T06:45:08.563Z,5.80
2019-02-07T06:46:08.572Z,6.70
2019-02-07T06:47:13.394Z,5.20
2019-02-07T06:48:09.526Z,5.90
2019-02-07T06:49:08.517Z,6.20
2019-02-07T06:50:08.498Z,6.20
2019-02-07T06:51:08.752Z,5.90
2019-02-07T06:52:08.488Z,5.80
2019-02-07T06:53:11.118Z,6.20
2019-02-07T06:54:08.479Z,6.60
2019-02-07T06:55:08.446Z,7.00
2019-02-07T06:56:08.473Z,4.70
2019-02-07T06:57:08.440Z,5.90
2019-02-07T06:58:08.421Z,6.10
2019-02-07T06:59:08.426Z,5.50
2019-02-07T07:00:08.404Z,5.90
2019-02-07T07:01:08.392Z,5.60
2019-02-07T07:02:08.418Z,5.60
2019-02-07T07:03:08.376Z,6.50
2019-02-07T07:04:08.364Z,5.20
2019-02-07T07:05:08.390Z,5.40
2019-02-07T07:06:08.346Z,5.70
2019-02-07T07:07:08.344Z,5.80
2019-02-07T07:08:08.309Z,5.20
2019-02-07T07:09:08.301Z,6.00
2019-02-07T07:10:08.294Z,5.70
2019-02-07T07:11:08.303Z,5.70
2019-02-07T07:12:08.359Z,5.90
2019-02-07T07:13:08.278Z,5.90
2019-02-07T07:14:08.279Z,5.30
2019-02-07T07:15:08.234Z,5.10
2019-02-07T07:16:08.237Z,5.70
2019-02-07T07:17:08.236Z,6.20
2019-02-07T07:18:08.232Z,5.50
2019-02-07T07:19:08.208Z,5.80
2019-02-07T07:20:08.189Z,5.80
2019-02-07T07:21:08.165Z,5.80
2019-02-07T07:22:08.156Z,6.20
2019-02-07T07:23:08.165Z,5.80
2019-02-07T07:24:08.142Z,5.70
2019-02-07T07:25:08.137Z,5.90
2019-02-07T07:26:09.502Z,6.50
2019-02-07T07:27:08.195Z,5.90
2019-02-07T07:28:08.121Z,6.40
2019-02-07T07:29:08.092Z,6.50
2019-02-07T07:30:08.078Z,6.30
2019-02-07T07:31:08.071Z,6.10
2019-02-07T07:32:08.059Z,6.40
2019-02-07T07:33:08.071Z,5.60
2019-02-07T07:34:08.025Z,6.30
2019-02-07T07:35:08.018Z,6.20
2019-02-07T07:36:08.016Z,6.80
2019-02-07T07:37:08.002Z,6.10
2019-02-07T07:38:07.993Z,7.30
2019-02-07T07:39:08.005Z,6.60
2019-02-07T07:40:08.105Z,7.00
2019-02-07T07:41:07.966Z,6.50
2019-02-07T07:42:07.958Z,7.50
2019-02-07T07:43:07.935Z,7.60
2019-02-07T07:44:07.971Z,7.90
2019-02-07T07:45:07.919Z,7.40
2019-02-07T07:46:07.931Z,9.70
2019-02-07T07:47:07.885Z,7.10
2019-02-07T07:48:07.884Z,6.90
2019-02-07T07:49:10.430Z,7.50
2019-02-07T07:50:07.859Z,6.80
2019-02-07T07:51:07.852Z,7.60
2019-02-07T07:52:07.857Z,6.80
2019-02-07T07:53:07.830Z,7.40
2019-02-07T07:54:07.843Z,7.10
2019-02-07T07:55:07.799Z,6.30
2019-02-07T07:56:07.955Z,7.30
2019-02-07T07:57:07.809Z,6.80
2019-02-07T07:58:07.764Z,7.00
2019-02-07T07:59:07.801Z,6.70
2019-02-07T08:00:07.753Z,7.00
2019-02-07T08:01:07.751Z,6.50
2019-02-07T08:02:07.732Z,6.60
2019-02-07T08:03:07.722Z,7.20
2019-02-07T08:04:07.700Z,6.70
2019-02-07T08:05:07.707Z,6.80
2019-02-07T08:06:07.682Z,7.00
2019-02-07T08:07:07.673Z,7.00
2019-02-07T08:08:07.673Z,6.70
2019-02-07T08:09:07.658Z,7.60
2019-02-07T08:10:07.671Z,6.70
2019-02-07T08:11:07.634Z,7.40
2019-02-07T08:12:07.612Z,7.50
2019-02-07T08:13:07.601Z,7.50
2019-02-07T08:14:07.601Z,7.20
2019-02-07T08:15:07.595Z,6.70
2019-02-07T08:16:07.587Z,7.40
2019-02-07T08:17:07.565Z,7.40
2019-02-07T08:18:07.550Z,6.80
2019-02-07T08:19:07.538Z,7.90
2019-02-07T08:20:07.532Z,7.10
2019-02-07T08:21:07.547Z,6.90
2019-02-07T08:22:07.516Z,7.40
2019-02-07T08:23:07.502Z,7.40
2019-02-07T08:24:07.510Z,7.70
2019-02-07T08:25:07.476Z,7.20
2019-02-07T08:26:07.620Z,7.70
2019-02-07T08:27:07.450Z,6.90
2019-02-07T08:28:07.452Z,7.60
2019-02-07T08:29:07.435Z,7.30
2019-02-07T08:30:07.414Z,6.60
2019-02-07T08:31:07.459Z,8.20
2019-02-07T08:32:07.407Z,6.40
2019-02-07T08:33:07.398Z,7.30
2019-02-07T08:34:07.386Z,6.50
2019-02-07T08:35:07.376Z,7.20
2019-02-07T08:36:07.347Z,7.00
2019-02-07T08:37:07.354Z,7.30
2019-02-07T08:38:07.333Z,7.30
2019-02-07T08:39:07.336Z,8.00
2019-02-07T08:40:07.337Z,7.20
2019-02-07T08:41:07.308Z,6.80
2019-02-07T08:42:07.335Z,8.00
2019-02-07T08:43:07.282Z,7.60
2019-02-07T08:44:07.270Z,7.80
2019-02-07T08:45:07.258Z,8.30
2019-02-07T08:46:07.267Z,7.60
2019-02-07T08:47:07.241Z,7.60
2019-02-07T08:48:07.240Z,8.10
2019-02-07T08:49:07.209Z,7.20
2019-02-07T08:50:07.205Z,7.70
2019-02-07T08:51:07.193Z,8.10
2019-02-07T08:52:07.183Z,8.00
2019-02-07T08:53:07.286Z,7.70
2019-02-07T08:54:07.169Z,7.90
2019-02-07T08:55:07.158Z,7.90
2019-02-07T08:56:07.129Z,8.60
2019-02-07T08:57:07.123Z,7.90
2019-02-07T08:58:07.147Z,8.00
2019-02-07T08:59:07.099Z,7.90
2019-02-07T09:00:07.098Z,8.30
2019-02-07T09:01:07.090Z,8.10
2019-02-07T09:02:07.071Z,7.90
2019-02-07T09:03:07.059Z,8.50
2019-02-07T09:04:07.084Z,7.50
2019-02-07T09:05:07.051Z,7.90
2019-02-07T09:06:07.034Z,7.50
2019-02-07T09:07:07.030Z,8.20
2019-02-07T09:08:07.020Z,8.00
2019-02-07T09:09:07.007Z,8.10
2019-02-07T09:10:06.976Z,8.60
2019-02-07T09:11:06.975Z,8.20
2019-02-07T09:12:06.965Z,8.20
2019-02-07T09:13:06.964Z,7.70
2019-02-07T09:14:06.978Z,8.80
2019-02-07T09:15:06.940Z,8.00
2019-02-07T09:16:06.918Z,8.40
2019-02-07T09:17:06.905Z,8.40
2019-02-07T09:18:11.333Z,9.10
2019-02-07T09:19:07.911Z,8.40
2019-02-07T09:20:06.868Z,8.50
2019-02-07T09:21:06.873Z,8.30
2019-02-07T09:22:06.850Z,7.80
2019-02-07T09:23:06.837Z,7.60
2019-02-07T09:24:06.854Z,7.10
2019-02-07T09:25:06.821Z,9.20
2019-02-07T09:26:06.813Z,8.50
2019-02-07T09:27:06.807Z,8.50
2019-02-07T09:28:06.786Z,8.40
2019-02-07T09:29:07.909Z,7.80
2019-02-07T09:30:06.768Z,7.90
2019-02-07T09:31:06.930Z,8.30
2019-02-07T09:32:06.771Z,8.40
2019-02-07T09:33:06.835Z,7.40
2019-02-07T09:34:06.727Z,8.00
2019-02-07T09:35:06.797Z,7.60
2019-02-07T09:36:06.712Z,7.70
2019-02-07T09:37:06.698Z,8.20
2019-02-07T09:38:06.686Z,6.90
2019-02-07T09:39:06.676Z,7.80
2019-02-07T09:40:06.912Z,7.00
2019-02-07T09:41:07.009Z,7.50
2019-02-07T09:42:06.630Z,6.70
2019-02-07T09:43:06.628Z,7.80
2019-02-07T09:44:06.636Z,7.60
2019-02-07T09:45:06.619Z,7.50
2019-02-07T09:46:07.074Z,7.50
2019-02-07T09:47:06.616Z,7.00
2019-02-07T09:48:06.573Z,8.00
2019-02-07T09:49:08.926Z,7.20
2019-02-07T09:50:06.552Z,7.70
2019-02-07T09:51:06.584Z,8.50
2019-02-07T09:52:06.521Z,8.30
2019-02-07T09:53:06.540Z,8.00
2019-02-07T09:54:06.502Z,7.90
2019-02-07T09:55:06.492Z,7.80
2019-02-07T09:56:06.490Z,7.10
2019-02-07T09:57:06.506Z,7.40
2019-02-07T09:58:06.465Z,7.60
2019-02-07T09:59:06.461Z,8.20
2019-02-07T10:00:06.440Z,8.10
2019-02-07T10:01:06.431Z,7.60
2019-02-07T10:02:06.427Z,8.20
2019-02-07T10:03:06.404Z,7.80
2019-02-07T10:04:06.410Z,7.80
2019-02-07T10:05:06.406Z,7.70
2019-02-07T10:06:06.381Z,8.00
2019-02-07T10:07:06.385Z,8.10
2019-02-07T10:08:06.386Z,6.70
2019-02-07T10:09:06.349Z,7.70
2019-02-07T10:10:06.354Z,7.60
2019-02-07T10:11:06.337Z,8.20
2019-02-07T10:12:06.309Z,7.50
2019-02-07T10:13:06.305Z,7.60
2019-02-07T10:14:06.297Z,7.50
2019-02-07T10:15:06.264Z,7.70
2019-02-07T10:16:06.268Z,7.90
2019-02-07T10:17:06.255Z,7.20
2019-02-07T10:18:06.261Z,7.20
2019-02-07T10:19:06.265Z,7.70
2019-02-07T10:20:06.234Z,8.00
2019-02-07T10:21:06.202Z,8.00
2019-02-07T10:22:06.203Z,7.60
2019-02-07T10:23:06.191Z,7.30
2019-02-07T10:24:06.216Z,7.70
2019-02-07T10:25:06.166Z,8.40
2019-02-07T10:26:06.158Z,8.00
2019-02-07T10:27:06.141Z,7.90
2019-02-07T10:28:06.141Z,7.70
2019-02-07T10:29:06.151Z,8.20
2019-02-07T10:30:06.116Z,8.60
2019-02-07T10:31:06.124Z,7.90
2019-02-07T10:32:06.091Z,7.80
2019-02-07T10:33:06.072Z,7.90
2019-02-07T10:34:06.077Z,8.60
2019-02-07T10:35:06.056Z,8.00
2019-02-07T10:36:06.096Z,8.50
2019-02-07T10:37:06.038Z,8.70
2019-02-07T10:38:06.030Z,8.60
2019-02-07T10:39:06.115Z,8.50
2019-02-07T10:40:06.003Z,8.00
2019-02-07T10:41:06.000Z,8.50
2019-02-07T10:42:06.004Z,8.10
2019-02-07T10:43:05.972Z,7.60
2019-02-07T10:44:05.946Z,7.80
2019-02-07T10:45:05.949Z,7.90
2019-02-07T10:46:05.936Z,8.00
2019-02-07T10:47:05.919Z,7.50
2019-02-07T10:48:05.918Z,8.80
2019-02-07T10:49:05.906Z,8.20
2019-02-07T10:50:05.922Z,8.00
2019-02-07T10:51:05.881Z,7.50
2019-02-07T10:52:05.866Z,7.70
2019-02-07T10:53:05.860Z,8.00
2019-02-07T10:54:05.854Z,7.70
2019-02-07T10:55:05.860Z,7.60
2019-02-07T10:56:05.850Z,7.60
2019-02-07T10:57:05.922Z,7.70
2019-02-07T10:58:05.806Z,7.70
2019-02-07T10:59:05.791Z,7.30
2019-02-07T11:00:05.786Z,7.80
2019-02-07T11:01:05.815Z,8.00
2019-02-07T11:02:05.772Z,7.30
2019-02-07T11:03:05.756Z,7.40
2019-02-07T11:04:05.756Z,9.70
2019-02-07T11:05:05.725Z,8.50
2019-02-07T11:06:05.715Z,10.20
2019-02-07T11:07:05.738Z,7.20
2019-02-07T11:08:05.702Z,6.40
2019-02-07T11:09:05.689Z,6.80
2019-02-07T11:10:05.671Z,7.10
2019-02-07T11:11:05.678Z,6.40
2019-02-07T11:12:05.651Z,5.80
2019-02-07T11:13:05.640Z,6.60
2019-02-07T11:14:05.637Z,5.90
2019-02-07T11:15:05.625Z,5.90
2019-02-07T11:16:05.630Z,6.10
2019-02-07T11:17:05.587Z,6.50
2019-02-07T11:18:05.577Z,6.50
2019-02-07T11:19:05.568Z,6.30
2019-02-07T11:20:05.565Z,6.00
2019-02-07T11:21:05.555Z,6.30
2019-02-07T11:22:05.561Z,5.90
2019-02-07T11:23:05.534Z,5.70
2019-02-07T11:24:05.513Z,6.30
2019-02-07T11:25:05.510Z,6.60
2019-02-07T11:26:05.492Z,6.40
2019-02-07T11:27:05.515Z,6.20
2019-02-07T11:28:10.754Z,6.60
2019-02-07T11:29:06.455Z,6.10
2019-02-07T11:30:05.444Z,5.30
2019-02-07T11:31:05.436Z,6.20
2019-02-07T11:32:05.485Z,5.80
2019-02-07T11:33:05.442Z,5.60
2019-02-07T11:34:05.411Z,5.90
2019-02-07T11:35:05.401Z,5.80
2019-02-07T11:36:05.380Z,5.90
2019-02-07T11:37:05.365Z,5.70
2019-02-07T11:38:05.379Z,5.40
2019-02-07T11:39:05.344Z,4.90
2019-02-07T11:40:05.343Z,5.20
2019-02-07T11:41:05.350Z,5.30
2019-02-07T11:42:05.310Z,5.50
2019-02-07T11:43:05.344Z,5.80
2019-02-07T11:44:05.304Z,5.20
2019-02-07T11:45:05.284Z,5.80
2019-02-07T11:46:05.291Z,5.40
2019-02-07T11:47:07.548Z,5.70
2019-02-07T11:48:05.252Z,5.10
2019-02-07T11:49:06.955Z,4.90
2019-02-07T11:50:05.241Z,5.30
2019-02-07T11:51:05.219Z,5.20
2019-02-07T11:52:05.210Z,4.90
2019-02-07T11:53:05.224Z,5.40
2019-02-07T11:54:05.212Z,5.00
2019-02-07T11:55:05.175Z,4.90
2019-02-07T11:56:05.165Z,5.10
2019-02-07T11:57:05.147Z,4.90
2019-02-07T11:58:05.146Z,5.10
2019-02-07T11:59:05.147Z,6.70
2019-02-07T12:00:05.124Z,5.40
2019-02-07T12:01:05.109Z,5.30
2019-02-07T12:02:09.240Z,5.10
2019-02-07T12:03:05.096Z,5.00
2019-02-07T12:04:05.107Z,5.40
2019-02-07T12:05:05.063Z,4.90
2019-02-07T12:06:05.085Z,5.20
2019-02-07T12:07:05.047Z,5.20
2019-02-07T12:08:05.032Z,5.80
2019-02-07T12:09:05.095Z,5.50
2019-02-07T12:10:05.042Z,5.10
2019-02-07T12:11:05.002Z,4.90
2019-02-07T12:12:05.026Z,4.80
2019-02-07T12:13:04.988Z,4.50
2019-02-07T12:14:04.964Z,4.80
2019-02-07T12:15:04.962Z,4.80
2019-02-07T12:16:04.941Z,5.10
2019-02-07T12:17:04.937Z,5.00
2019-02-07T12:18:04.946Z,5.30
2019-02-07T12:19:04.913Z,4.00
2019-02-07T12:20:04.890Z,5.50
2019-02-07T12:21:04.879Z,6.10
2019-02-07T12:22:04.874Z,5.50
2019-02-07T12:23:04.900Z,5.30
2019-02-07T12:24:04.872Z,4.80
2019-02-07T12:25:04.836Z,5.40
2019-02-07T12:26:04.826Z,4.90
2019-02-07T12:27:04.839Z,5.20
2019-02-07T12:28:04.843Z,4.60
2019-02-07T12:29:04.810Z,5.10
2019-02-07T12:30:04.816Z,4.60
2019-02-07T12:31:04.794Z,5.10
2019-02-07T12:32:04.759Z,4.50
2019-02-07T12:33:04.762Z,4.70
2019-02-07T12:34:04.757Z,4.70
2019-02-07T12:35:04.734Z,4.30
2019-02-07T12:36:04.751Z,4.30
2019-02-07T12:37:04.723Z,4.40
2019-02-07T12:38:04.695Z,4.70
2019-02-07T12:39:05.787Z,3.80
2019-02-07T12:40:04.690Z,4.70
2019-02-07T12:41:04.713Z,4.20
2019-02-07T12:42:04.659Z,4.40
2019-02-07T12:43:04.646Z,4.20
2019-02-07T12:44:04.632Z,4.20
2019-02-07T12:45:04.619Z,4.40
2019-02-07T12:46:04.617Z,4.20
2019-02-07T12:47:04.648Z,4.40
2019-02-07T12:48:04.584Z,5.00
2019-02-07T12:49:04.574Z,4.50
2019-02-07T12:50:04.563Z,4.60
2019-02-07T12:51:04.557Z,4.20
2019-02-07T12:52:04.577Z,4.70
2019-02-07T12:53:04.541Z,4.50
2019-02-07T12:54:04.521Z,4.60
2019-02-07T12:55:04.534Z,4.60
2019-02-07T12:56:04.496Z,4.70
2019-02-07T12:57:04.558Z,4.20
2019-02-07T12:58:04.479Z,4.30
2019-02-07T12:59:04.475Z,4.50
2019-02-07T13:00:04.456Z,4.60
2019-02-07T13:01:04.448Z,4.40
2019-02-07T13:02:04.433Z,4.00
2019-02-07T13:03:04.474Z,5.10
2019-02-07T13:04:04.430Z,5.20
2019-02-07T13:05:04.417Z,5.10
2019-02-07T13:06:04.418Z,4.70
2019-02-07T13:07:06.760Z,5.10
2019-02-07T13:08:04.381Z,4.70
2019-02-07T13:09:04.358Z,4.10
2019-02-07T13:10:04.343Z,5.10
2019-02-07T13:11:04.339Z,5.20
2019-02-07T13:12:04.329Z,5.20
2019-02-07T13:13:04.370Z,5.90
2019-02-07T13:14:04.317Z,4.70
2019-02-07T13:15:04.343Z,4.80
2019-02-07T13:16:04.284Z,5.70
2019-02-07T13:17:04.327Z,4.90
2019-02-07T13:18:04.460Z,4.90